Wetterstation Vordersexau
Wetterdaten: Woche 04.09.17 - 10.09.17 (KW36)
Datum Zeit Temp. A. Feuchte A. Luftdruck Regen Wind Richtung Taupunkt Windchill Windben
04.09.2017 00:00 10,1 C 83 % 1012,5 hPa 0,0 l/m 0,0 km/h O-SO 7,3 C 10,1 C 0,0 km/h
04.09.2017 01:00 9,6 C 83 % 1012,5 hPa 0,0 l/m 0,0 km/h O-SO 6,9 C 9,6 C 0,0 km/h
04.09.2017 02:00 9,1 C 83 % 1012,4 hPa 0,0 l/m 0,0 km/h O-SO 6,4 C 9,1 C 0,0 km/h
04.09.2017 03:00 9,4 C 83 % 1012,2 hPa 0,0 l/m 0,0 km/h NO 6,7 C 9,4 C 0,0 km/h
04.09.2017 04:00 9,2 C 83 % 1012,1 hPa 0,0 l/m 0,0 km/h NO 6,5 C 9,2 C 0,0 km/h
04.09.2017 05:00 8,6 C 83 % 1012,5 hPa 0,0 l/m 0,0 km/h SO 5,9 C 8,6 C 0,0 km/h
04.09.2017 06:00 8,1 C 83 % 1012,8 hPa 0,0 l/m 0,0 km/h O-SO 5,4 C 8,1 C 0,0 km/h
04.09.2017 07:00 9,9 C 80 % 1013,2 hPa 0,0 l/m 0,0 km/h SO 6,6 C 9,9 C 0,0 km/h
04.09.2017 08:00 13,6 C 83 % 1013,5 hPa 0,0 l/m 0,0 km/h O-NO 10,8 C 13,6 C 0,0 km/h
04.09.2017 09:00 21,4 C 62 % 1013,8 hPa 0,0 l/m 0,0 km/h W-SW 13,8 C 21,4 C 0,0 km/h
04.09.2017 10:00 23,4 C 53 % 1014,0 hPa 0,0 l/m 0,0 km/h W 13,3 C 23,4 C 0,0 km/h
04.09.2017 11:00 23,5 C 51 % 1014,6 hPa 0,0 l/m 0,0 km/h S-SW 12,8 C 23,5 C 0,0 km/h
04.09.2017 12:00 24,4 C 48 % 1014,7 hPa 0,0 l/m 0,0 km/h W 12,7 C 24,4 C 0,0 km/h
04.09.2017 13:00 24,1 C 47 % 1014,7 hPa 0,0 l/m 0,0 km/h N-NW 12,1 C 24,1 C 0,0 km/h
04.09.2017 14:00 28,2 C 36 % 1014,5 hPa 0,0 l/m 0,0 km/h W 11,7 C 28,2 C 0,0 km/h
04.09.2017 15:00 23,3 C 45 % 1014,8 hPa 0,0 l/m 0,0 km/h W 10,7 C 23,3 C 0,0 km/h
04.09.2017 16:00 23,2 C 46 % 1014,8 hPa 0,0 l/m 0,0 km/h W-NW 10,9 C 23,2 C 0,0 km/h
04.09.2017 17:00 21,0 C 57 % 1015,1 hPa 0,0 l/m 0,0 km/h W 12,1 C 21,0 C 0,0 km/h
04.09.2017 18:00 19,3 C 64 % 1015,1 hPa 0,0 l/m 0,0 km/h S-SO 12,3 C 19,3 C 0,0 km/h
04.09.2017 19:00 17,8 C 68 % 1015,8 hPa 0,0 l/m 0,0 km/h O-SO 11,8 C 17,8 C 0,0 km/h
04.09.2017 20:00 16,9 C 73 % 1016,3 hPa 0,0 l/m 9,1 km/h O-SO 12,0 C 15,6 C 5,0 km/h
04.09.2017 21:00 15,9 C 77 % 1016,7 hPa 0,0 l/m 0,0 km/h SO 11,9 C 15,9 C 0,0 km/h
04.09.2017 22:00 15,5 C 79 % 1016,8 hPa 0,0 l/m 0,0 km/h O-SO 11,9 C 15,5 C 0,0 km/h
04.09.2017 23:00 15,5 C 80 % 1017,2 hPa 0,0 l/m 0,0 km/h O-SO 12,1 C 15,5 C 0,0 km/h
05.09.2017 00:00 15,4 C 81 % 1017,0 hPa 0,0 l/m 0,0 km/h NO 12,2 C 15,4 C 0,0 km/h
05.09.2017 01:00 15,3 C 81 % 1017,1 hPa 0,0 l/m 0,0 km/h O-NO 12,1 C 15,3 C 0,0 km/h
05.09.2017 02:00 15,2 C 82 % 1017,2 hPa 0,0 l/m 0,0 km/h O-SO 12,1 C 15,2 C 0,0 km/h
05.09.2017 03:00 14,9 C 82 % 1017,2 hPa 0,0 l/m 0,0 km/h O-SO 11,9 C 14,9 C 0,0 km/h
05.09.2017 04:00 14,7 C 83 % 1017,1 hPa 0,0 l/m 0,0 km/h O-SO 11,8 C 14,7 C 0,0 km/h
05.09.2017 05:00 14,5 C 83 % 1017,1 hPa 0,0 l/m 0,0 km/h O-SO 11,6 C 14,5 C 0,0 km/h
05.09.2017 06:00 14,4 C 83 % 1017,2 hPa 0,0 l/m 0,0 km/h SO 11,5 C 14,4 C 0,0 km/h
05.09.2017 07:00 15,3 C 83 % 1017,2 hPa 0,0 l/m 0,0 km/h O-SO 12,4 C 15,3 C 0,0 km/h
05.09.2017 08:00 17,2 C 82 % 1017,4 hPa 0,0 l/m 0,0 km/h SO 14,1 C 17,2 C 0,0 km/h
05.09.2017 09:00 21,9 C 74 % 1017,6 hPa 0,0 l/m 0,0 km/h W 17,0 C 21,9 C 0,0 km/h
05.09.2017 10:00 24,3 C 59 % 1017,8 hPa 0,0 l/m 0,0 km/h W 15,8 C 24,3 C 0,0 km/h
05.09.2017 11:00 27,1 C 54 % 1017,4 hPa 0,0 l/m 0,0 km/h S-SW 17,0 C 27,1 C 0,0 km/h
05.09.2017 12:00 29,8 C 51 % 1017,0 hPa 0,0 l/m 0,0 km/h W 18,5 C 29,8 C 0,0 km/h
05.09.2017 13:00 29,0 C 47 % 1016,4 hPa 0,0 l/m 0,0 km/h W-SW 16,5 C 29,0 C 0,0 km/h
05.09.2017 14:00 28,5 C 51 % 1016,2 hPa 0,0 l/m 0,0 km/h W-SW 17,4 C 28,5 C 0,0 km/h
05.09.2017 15:00 28,4 C 48 % 1015,7 hPa 0,0 l/m 12,3 km/h W-SW 16,3 C 27,7 C 6,8 km/h
05.09.2017 16:00 29,6 C 48 % 1015,7 hPa 0,0 l/m 0,0 km/h W 17,4 C 29,6 C 0,0 km/h
05.09.2017 17:00 26,5 C 55 % 1015,6 hPa 0,0 l/m 0,0 km/h W-NW 16,7 C 26,5 C 0,0 km/h
05.09.2017 18:00 25,1 C 56 % 1015,7 hPa 0,0 l/m 0,0 km/h W-NW 15,7 C 25,1 C 0,0 km/h
05.09.2017 19:00 22,4 C 69 % 1015,8 hPa 0,0 l/m 0,0 km/h W-NW 16,4 C 22,4 C 0,0 km/h
05.09.2017 20:00 20,1 C 76 % 1016,5 hPa 0,0 l/m 0,0 km/h W-NW 15,7 C 20,1 C 0,0 km/h
05.09.2017 21:00 18,5 C 79 % 1016,6 hPa 0,0 l/m 0,0 km/h O-NO 14,8 C 18,5 C 0,0 km/h
05.09.2017 22:00 18,3 C 80 % 1016,6 hPa 0,0 l/m 0,0 km/h O-NO 14,8 C 18,3 C 0,0 km/h
05.09.2017 23:00 18,3 C 81 % 1016,5 hPa 0,0 l/m 0,0 km/h O-NO 15,0 C 18,3 C 0,0 km/h
06.09.2017 00:00 17,9 C 82 % 1016,3 hPa 0,0 l/m 0,0 km/h O-NO 14,8 C 17,9 C 0,0 km/h
06.09.2017 01:00 17,8 C 82 % 1016,2 hPa 0,0 l/m 0,0 km/h O-NO 14,7 C 17,8 C 0,0 km/h
06.09.2017 02:00 17,7 C 83 % 1016,3 hPa 0,0 l/m 0,0 km/h O-NO 14,8 C 17,7 C 0,0 km/h
06.09.2017 03:00 19,3 C 81 % 1016,0 hPa 0,0 l/m 10,4 km/h N-NW 16,0 C 17,7 C 5,8 km/h
06.09.2017 04:00 19,3 C 80 % 1016,0 hPa 0,0 l/m 0,0 km/h W 15,8 C 19,3 C 0,0 km/h
06.09.2017 05:00 18,7 C 81 % 1016,0 hPa 0,0 l/m 0,0 km/h W-SW 15,4 C 18,7 C 0,0 km/h
06.09.2017 06:00 18,3 C 82 % 1016,3 hPa 0,0 l/m 0,0 km/h S-SW 15,2 C 18,3 C 0,0 km/h
06.09.2017 07:00 18,2 C 82 % 1016,4 hPa 0,0 l/m 0,0 km/h W 15,1 C 18,2 C 0,0 km/h
06.09.2017 08:00 19,1 C 82 % 1016,7 hPa 0,0 l/m 0,0 km/h S 16,0 C 19,1 C 0,0 km/h
06.09.2017 09:00 19,6 C 81 % 1017,0 hPa 0,0 l/m 0,0 km/h W-SW 16,2 C 19,6 C 0,0 km/h
06.09.2017 10:00 24,4 C 68 % 1016,7 hPa 0,0 l/m 1,9 km/h S 18,1 C 24,4 C 1,1 km/h
06.09.2017 11:00 22,4 C 71 % 1016,5 hPa 0,0 l/m 18,1 km/h W-SW 16,9 C 19,6 C 10,1 km/h
06.09.2017 12:00 21,5 C 63 % 1016,3 hPa 0,0 l/m 0,0 km/h NW 14,2 C 21,5 C 0,0 km/h
06.09.2017 13:00 20,4 C 73 % 1016,6 hPa 0,0 l/m 0,0 km/h W 15,4 C 20,4 C 0,0 km/h
06.09.2017 14:00 20,8 C 67 % 1016,6 hPa 0,0 l/m 3,2 km/h W-NW 14,4 C 20,8 C 1,8 km/h
06.09.2017 15:00 19,9 C 67 % 1016,7 hPa 0,0 l/m 0,0 km/h W 13,6 C 19,9 C 0,0 km/h
06.09.2017 16:00 19,6 C 66 % 1016,9 hPa 0,0 l/m 0,0 km/h W 13,1 C 19,6 C 0,0 km/h
06.09.2017 17:00 20,4 C 58 % 1016,7 hPa 0,0 l/m 1,3 km/h NW 11,9 C 20,4 C 0,7 km/h
06.09.2017 18:00 19,0 C 61 % 1017,0 hPa 0,0 l/m 0,0 km/h NW 11,3 C 19,0 C 0,0 km/h
06.09.2017 19:00 17,5 C 64 % 1017,3 hPa 0,0 l/m 0,0 km/h W 10,6 C 17,5 C 0,0 km/h
06.09.2017 20:00 16,1 C 67 % 1017,9 hPa 0,0 l/m 0,0 km/h S 10,0 C 16,1 C 0,0 km/h
06.09.2017 21:00 14,5 C 73 % 1018,1 hPa 0,0 l/m 0,0 km/h S 9,7 C 14,5 C 0,0 km/h
06.09.2017 22:00 14,4 C 77 % 1018,1 hPa 0,0 l/m 0,0 km/h S 10,4 C 14,4 C 0,0 km/h
06.09.2017 23:00 13,8 C 80 % 1018,2 hPa 0,0 l/m 0,0 km/h S 10,4 C 13,8 C 0,0 km/h
07.09.2017 00:00 13,9 C 81 % 1018,0 hPa 0,0 l/m 0,0 km/h S 10,7 C 13,9 C 0,0 km/h
07.09.2017 01:00 13,6 C 82 % 1017,7 hPa 0,0 l/m 0,0 km/h S 10,6 C 13,6 C 0,0 km/h
07.09.2017 02:00 13,6 C 82 % 1017,4 hPa 0,0 l/m 0,0 km/h N 10,6 C 13,6 C 0,0 km/h
07.09.2017 03:00 13,7 C 82 % 1017,1 hPa 0,0 l/m 0,0 km/h N 10,7 C 13,7 C 0,0 km/h
07.09.2017 04:00 13,0 C 83 % 1016,8 hPa 0,0 l/m 0,0 km/h N-NO 10,2 C 13,0 C 0,0 km/h
07.09.2017 05:00 12,9 C 83 % 1016,5 hPa 0,0 l/m 0,0 km/h N-NO 10,1 C 12,9 C 0,0 km/h
07.09.2017 06:00 12,7 C 83 % 1016,4 hPa 0,0 l/m 0,0 km/h O-SO 9,9 C 12,7 C 0,0 km/h
07.09.2017 07:00 12,9 C 83 % 1016,5 hPa 0,0 l/m 0,0 km/h NO 10,1 C 12,9 C 0,0 km/h
07.09.2017 08:00 14,4 C 83 % 1016,6 hPa 0,5 l/m 0,0 km/h NO 11,5 C 14,4 C 0,0 km/h
07.09.2017 09:00 15,2 C 83 % 1016,7 hPa 0,0 l/m 0,0 km/h S 12,3 C 15,2 C 0,0 km/h
07.09.2017 10:00 18,4 C 79 % 1016,9 hPa 0,0 l/m 0,0 km/h S-SO 14,7 C 18,4 C 0,0 km/h
07.09.2017 11:00 19,5 C 68 % 1016,7 hPa 0,0 l/m 0,0 km/h S-SO 13,4 C 19,5 C 0,0 km/h
07.09.2017 12:00 19,5 C 64 % 1016,3 hPa 0,0 l/m 0,0 km/h O-SO 12,5 C 19,5 C 0,0 km/h
07.09.2017 13:00 18,8 C 65 % 1015,9 hPa 0,0 l/m 0,0 km/h O 12,1 C 18,8 C 0,0 km/h
07.09.2017 14:00 23,5 C 51 % 1015,4 hPa 0,0 l/m 0,0 km/h S-SO 12,8 C 23,5 C 0,0 km/h
07.09.2017 15:00 25,1 C 47 % 1014,6 hPa 0,0 l/m 0,0 km/h W 13,0 C 25,1 C 0,0 km/h
07.09.2017 16:00 23,6 C 50 % 1014,4 hPa 0,0 l/m 0,0 km/h W-SW 12,6 C 23,6 C 0,0 km/h
07.09.2017 17:00 25,3 C 44 % 1013,8 hPa 0,0 l/m 0,0 km/h W-SW 12,2 C 25,3 C 0,0 km/h
07.09.2017 18:00 24,5 C 47 % 1013,6 hPa 0,0 l/m 0,0 km/h W-SW 12,4 C 24,5 C 0,0 km/h
07.09.2017 19:00 16,3 C 66 % 1013,7 hPa 0,0 l/m 0,0 km/h S-SO 9,9 C 16,3 C 0,0 km/h
07.09.2017 20:00 14,3 C 74 % 1014,4 hPa 0,0 l/m 0,0 km/h O-SO 9,7 C 14,3 C 0,0 km/h
07.09.2017 21:00 13,6 C 80 % 1014,3 hPa 0,0 l/m 0,0 km/h O-SO 10,2 C 13,6 C 0,0 km/h
07.09.2017 22:00 11,8 C 81 % 1014,4 hPa 0,0 l/m 0,0 km/h O-SO 8,6 C 11,8 C 0,0 km/h
07.09.2017 23:00 11,2 C 83 % 1014,3 hPa 0,0 l/m 0,0 km/h O-SO 8,4 C 11,2 C 0,0 km/h
08.09.2017 00:00 10,5 C 83 % 1014,0 hPa 0,0 l/m 0,0 km/h O 7,7 C 10,5 C 0,0 km/h
08.09.2017 01:00 9,8 C 83 % 1013,5 hPa 0,0 l/m 0,0 km/h O 7,1 C 9,8 C 0,0 km/h
08.09.2017 02:00 8,7 C 84 % 1013,2 hPa 0,0 l/m 0,0 km/h O 6,2 C 8,7 C 0,0 km/h
08.09.2017 03:00 8,6 C 83 % 1012,8 hPa 0,0 l/m 0,0 km/h O 5,9 C 8,6 C 0,0 km/h
08.09.2017 04:00 8,1 C 83 % 1012,3 hPa 0,0 l/m 0,0 km/h O-SO 5,4 C 8,1 C 0,0 km/h
08.09.2017 05:00 7,7 C 83 % 1011,9 hPa 0,0 l/m 0,0 km/h O-SO 5,0 C 7,7 C 0,0 km/h
08.09.2017 06:00 9,1 C 80 % 1011,5 hPa 0,0 l/m 0,0 km/h O-SO 5,8 C 9,1 C 0,0 km/h
08.09.2017 07:00 10,0 C 77 % 1011,7 hPa 0,0 l/m 0,0 km/h O-SO 6,2 C 10,0 C 0,0 km/h
08.09.2017 08:00 11,6 C 80 % 1011,2 hPa 0,0 l/m 0,0 km/h S-SO 8,3 C 11,6 C 0,0 km/h
08.09.2017 09:00 14,7 C 83 % 1010,8 hPa 0,0 l/m 21,4 km/h S 11,8 C 9,0 C 11,9 km/h
08.09.2017 10:00 18,3 C 67 % 1010,9 hPa 0,0 l/m 8,4 km/h S-SW 12,1 C 17,4 C 4,7 km/h
08.09.2017 11:00 18,3 C 61 % 1010,4 hPa 0,0 l/m 20,1 km/h W 10,6 C 14,0 C 11,2 km/h
08.09.2017 12:00 18,9 C 60 % 1009,7 hPa 0,0 l/m 8,4 km/h W-SW 11,0 C 18,0 C 4,7 km/h
08.09.2017 13:00 17,9 C 61 % 1009,4 hPa 0,0 l/m 11,7 km/h W-SW 10,3 C 15,7 C 6,5 km/h
08.09.2017 14:00 18,6 C 60 % 1008,9 hPa 0,0 l/m 11,0 km/h SW 10,7 C 16,7 C 6,1 km/h
08.09.2017 15:00 21,3 C 53 % 1008,1 hPa 0,0 l/m 21,4 km/h W 11,3 C 17,7 C 11,9 km/h
08.09.2017 16:00 20,4 C 53 % 1007,6 hPa 0,0 l/m 19,4 km/h W 10,5 C 16,8 C 10,8 km/h
08.09.2017 17:00 20,6 C 53 % 1006,9 hPa 0,0 l/m 17,5 km/h S-SO 10,7 C 17,4 C 9,7 km/h
08.09.2017 18:00 17,7 C 59 % 1006,1 hPa 0,0 l/m 0,0 km/h W-SW 9,6 C 17,7 C 0,0 km/h
08.09.2017 19:00 15,4 C 65 % 1006,2 hPa 0,0 l/m 0,0 km/h SO 8,9 C 15,4 C 0,0 km/h
08.09.2017 20:00 13,9 C 72 % 1005,7 hPa 0,0 l/m 0,0 km/h SO 8,9 C 13,9 C 0,0 km/h
08.09.2017 21:00 13,9 C 73 % 1004,9 hPa 0,0 l/m 0,0 km/h SO 9,1 C 13,9 C 0,0 km/h
08.09.2017 22:00 12,8 C 74 % 1004,3 hPa 0,0 l/m 0,0 km/h NO 8,3 C 12,8 C 0,0 km/h
08.09.2017 23:00 12,1 C 80 % 1003,5 hPa 0,0 l/m 0,0 km/h N-NO 8,8 C 12,1 C 0,0 km/h
09.09.2017 00:00 11,1 C 82 % 1002,6 hPa 0,0 l/m 0,0 km/h N-NO 8,1 C 11,1 C 0,0 km/h
09.09.2017 01:00 11,0 C 83 % 1002,0 hPa 0,0 l/m 0,0 km/h SO 8,2 C 11,0 C 0,0 km/h
09.09.2017 02:00 14,8 C 76 % 1000,8 hPa 0,0 l/m 0,0 km/h S-SO 10,6 C 14,8 C 0,0 km/h
09.09.2017 03:00 14,8 C 73 % 1000,3 hPa 0,0 l/m 7,1 km/h S 10,0 C 14,4 C 4,0 km/h
09.09.2017 04:00 15,6 C 70 % 999,8 hPa 0,0 l/m 0,0 km/h S-SW 10,1 C 15,6 C 0,0 km/h
09.09.2017 05:00 16,4 C 67 % 999,3 hPa 0,0 l/m 13,0 km/h S 10,3 C 13,5 C 7,2 km/h
09.09.2017 06:00 16,1 C 68 % 998,9 hPa 0,0 l/m 6,5 km/h S-SW 10,2 C 16,1 C 3,6 km/h
09.09.2017 07:00 16,4 C 67 % 999,5 hPa 0,0 l/m 25,9 km/h SW 10,3 C 10,3 C 14,4 km/h
09.09.2017 08:00 15,7 C 70 % 1000,1 hPa 0,0 l/m 0,0 km/h S 10,2 C 15,7 C 0,0 km/h
09.09.2017 09:00 12,9 C 82 % 1000,9 hPa 0,5 l/m 11,0 km/h S-SW 9,9 C 10,3 C 6,1 km/h
09.09.2017 10:00 14,6 C 81 % 1001,5 hPa 0,5 l/m 0,6 km/h S-SO 11,4 C 14,6 C 0,4 km/h
09.09.2017 11:00 16,1 C 78 % 1001,1 hPa 0,0 l/m 12,3 km/h S-SW 12,3 C 13,4 C 6,8 km/h
09.09.2017 12:00 17,6 C 73 % 1000,6 hPa 0,0 l/m 13,6 km/h W-SW 12,7 C 14,8 C 7,6 km/h
09.09.2017 13:00 18,8 C 68 % 1000,3 hPa 0,0 l/m 0,0 km/h W-SW 12,8 C 18,8 C 0,0 km/h
09.09.2017 14:00 17,6 C 69 % 999,9 hPa 0,0 l/m 6,5 km/h W 11,8 C 17,6 C 3,6 km/h
09.09.2017 15:00 17,7 C 69 % 999,9 hPa 0,0 l/m 0,0 km/h W-SW 11,9 C 17,7 C 0,0 km/h
09.09.2017 16:00 15,9 C 73 % 999,9 hPa 0,0 l/m 1,3 km/h S-SO 11,1 C 15,9 C 0,7 km/h
09.09.2017 17:00 15,5 C 73 % 1000,1 hPa 0,0 l/m 13,0 km/h S 10,7 C 12,5 C 7,2 km/h
09.09.2017 18:00 14,4 C 76 % 1000,8 hPa 0,0 l/m 7,8 km/h S 10,2 C 13,6 C 4,3 km/h
09.09.2017 19:00 13,9 C 74 % 1000,7 hPa 0,0 l/m 1,3 km/h SO 9,3 C 13,9 C 0,7 km/h
09.09.2017 20:00 13,6 C 76 % 1001,3 hPa 0,0 l/m 0,0 km/h SO 9,4 C 13,6 C 0,0 km/h
09.09.2017 21:00 12,7 C 79 % 1001,8 hPa 0,5 l/m 0,0 km/h O-SO 9,2 C 12,7 C 0,0 km/h
09.09.2017 22:00 11,9 C 83 % 1001,7 hPa 0,0 l/m 0,0 km/h NO 9,1 C 11,9 C 0,0 km/h
09.09.2017 23:00 11,1 C 83 % 1001,7 hPa 0,0 l/m 0,0 km/h NO 8,3 C 11,1 C 0,0 km/h
10.09.2017 00:00 10,5 C 83 % 1002,0 hPa 0,0 l/m 0,0 km/h NO 7,7 C 10,5 C 0,0 km/h
10.09.2017 01:00 11,1 C 82 % 1002,1 hPa 0,0 l/m 0,0 km/h N-NO 8,1 C 11,1 C 0,0 km/h
10.09.2017 02:00 11,4 C 82 % 1002,4 hPa 0,0 l/m 0,0 km/h N-NO 8,4 C 11,4 C 0,0 km/h
10.09.2017 03:00 11,3 C 81 % 1002,6 hPa 0,0 l/m 0,0 km/h O 8,2 C 11,3 C 0,0 km/h
10.09.2017 04:00 11,3 C 81 % 1003,1 hPa 0,0 l/m 0,0 km/h O 8,2 C 11,3 C 0,0 km/h
10.09.2017 05:00 10,7 C 81 % 1003,3 hPa 0,0 l/m 0,0 km/h O 7,6 C 10,7 C 0,0 km/h
10.09.2017 06:00 10,5 C 79 % 1003,8 hPa 0,0 l/m 0,0 km/h O 7,0 C 10,5 C 0,0 km/h
10.09.2017 07:00 10,9 C 78 % 1004,4 hPa 0,0 l/m 0,0 km/h O 7,2 C 10,9 C 0,0 km/h
10.09.2017 08:00 12,9 C 77 % 1004,9 hPa 0,0 l/m 0,0 km/h W 9,0 C 12,9 C 0,0 km/h
10.09.2017 09:00 14,4 C 82 % 1005,5 hPa 0,0 l/m 0,0 km/h W 11,4 C 14,4 C 0,0 km/h
10.09.2017 10:00 17,3 C 75 % 1005,2 hPa 0,0 l/m 0,0 km/h W 12,8 C 17,3 C 0,0 km/h
10.09.2017 11:00 17,8 C 68 % 1005,7 hPa 0,0 l/m 0,0 km/h SW 11,8 C 17,8 C 0,0 km/h
10.09.2017 12:00 22,1 C 57 % 1005,3 hPa 0,0 l/m 0,0 km/h S 13,2 C 22,1 C 0,0 km/h
10.09.2017 13:00 23,3 C 52 % 1004,9 hPa 0,0 l/m 0,0 km/h S 12,9 C 23,3 C 0,0 km/h
10.09.2017 14:00 24,1 C 45 % 1004,7 hPa 0,0 l/m 0,0 km/h W-SW 11,4 C 24,1 C 0,0 km/h
10.09.2017 15:00 25,3 C 39 % 1004,3 hPa 0,0 l/m 0,0 km/h S-SW 10,3 C 25,3 C 0,0 km/h
10.09.2017 16:00 26,3 C 37 % 1004,5 hPa 0,0 l/m 9,7 km/h W 10,4 C 25,7 C 5,4 km/h
10.09.2017 17:00 26,5 C 35 % 1004,2 hPa 0,0 l/m 20,7 km/h W-SW 9,8 C 24,5 C 11,5 km/h
10.09.2017 18:00 23,4 C 39 % 1004,1 hPa 0,0 l/m 1,3 km/h W-SW 8,6 C 23,4 C 0,7 km/h
10.09.2017 19:00 16,3 C 55 % 1004,6 hPa 0,0 l/m 0,0 km/h S 7,2 C 16,3 C 0,0 km/h
10.09.2017 20:00 13,7 C 63 % 1004,8 hPa 0,0 l/m 0,0 km/h S-SO 6,8 C 13,7 C 0,0 km/h
10.09.2017 21:00 11,9 C 69 % 1005,1 hPa 0,0 l/m 0,0 km/h N-NO 6,4 C 11,9 C 0,0 km/h
10.09.2017 22:00 10,3 C 79 % 1004,7 hPa 0,0 l/m 0,0 km/h N-NO 6,8 C 10,3 C 0,0 km/h
10.09.2017 23:00 8,9 C 81 % 1004,9 hPa 0,0 l/m 0,0 km/h N-NO 5,8 C 8,9 C 0,0 km/h
Min-Datum _ 08.09.17 10.09.17 09.09.17 - 04.09.17 - 08.09.17 08.09.17 04.09.17
_ Min-Zeit 05:53 17:53 06:53 - 00:53 - 05:53 05:53 00:53
Minimum _ 7,7 C 35 % 998,9 hPa - 0,0 km/h - 5,0 C 7,7 C 0,0 km/h
Max-Datum _ 05.09.17 08.09.17 06.09.17 07.09.17 09.09.17 - 05.09.17 05.09.17 09.09.17
_ Max-Zeit 12:53 02:58 23:58 08:58 07:53 - 12:53 12:53 07:53
Maximum _ 29,8 C 84 % 1018,2 hPa 0,5 l/m 25,9 km/h
SW
- 18,5 C 29,8 C 14,4 km/h
SW
Durchschnitt _ 16,9 C 71 % 1011,1 hPa #2,1 l/m 2,1 km/h O-SO 11,2 C 16,5 C 1,1 km/h
www.sexauwetter.de